Wolfeboro, NH (03894)

3:15 AM EST on March 04, 2015 (GMT -0500)
WCYC | Change Station
CLOSE
Current Station
Personal Weather Station
Location: Wolfeboro, NH
Elevation: 524 ft
Nearby Weather Stations
Active Advisory: Winter Weather Advisory Active Notice: Public Information Statement

Elev 524 ft 43.58 °N, 71.22 °W | Updated 22 seconds ago

Overcast
Overcast
24.6 °F
Feels Like 25 °F
N
0.0
Wind Variable Wind from WNW
Gusts 6.0 mph

Today
High -- | Low -- °F
--% Chance of Precip.
Yesterday
High -- | Low -- °F
Precip. -- in
6:16 AM 5:37 PM
Waxing Gibbous, 98% visible
Pressure 29.60 in
Visibility -9999.0 miles
Clouds Overcast 800 ft
Windchill 25 °F
Dew Point 23 °F
Humidity 93%
Rainfall 0.00 in
Snow Depth Not available.
UV 0 out of 12
Pollen .30 out of 12
Air Quality Not available.
Flu Activity Not available.
METAR KLCI 040755Z AUTO 27005KT OVC008 M04/M06 A2960 RMK AO1

More Conditions Fewer Conditions

Pressure 29.60 in
Visibility -9999.0 miles
Clouds Overcast 800 ft
Windchill 25 °F
Dew Point 23 °F
Humidity 93%
Rainfall 0.00 in
Snow Depth Not available.
UV 0 out of 12
Pollen .30 out of 12
Air Quality Not available.
Flu Activity Not available.
METAR KLCI 040755Z AUTO 27005KT OVC008 M04/M06 A2960 RMK AO1

More Conditions Fewer Conditions

10-Day Weather Forecast

Almanac

Astronomy

Mar. 04, 2015 Rise Set
Actual Time
Civil Twilight
Nautical Twilight
Astronomical Twilight
Moon
Length of Visible Light
Length of Day
Tomorrow will be .
, % of the Moon is Illuminated

Today's Extremes

State Highs State Lows

Community

WunderPhotos

Upload Photos

1,802,416 photos uploaded!

WunderBlogs® & News

Nearby

Air Quality

  Air Quality AQ Index Pollutant
Not available.

Snow Depth

Station Depth Elevation

Earthquake Activity

City Distance Mag. Time & Date
Minimum magnitude displayed is 2.5.

Coastal Water Temperatures

Place Temperature

Nearby Weather Stations

Winter Weather Advisory
Statement as of 12:03 AM EST on March 04, 2015

... Winter Weather Advisory remains in effect until 7 am EST
Wednesday...

* hazard types... snow

* accumulations... snow accumulation of 3 to 5 inches.

* Timing... light snow... ending by sunrise Wednesday.

* Impacts... roads will be snow covered and slippery.

* Winds... south 10 to 20 mph with gusts up to 40 mph.

* Temperatures... in the mid 20s.

Precautionary/preparedness actions...

A Winter Weather Advisory for snow means that periods of snow
will cause primarily travel difficulties. Be prepared for snow
covered roads and limited visibilities... and use caution while
driving.